EDW34N LSZH-MDPC
Flight info
| Callsign | EDW34N |
|---|---|
| Flight time | N/A |
| Altitude | 33000 |
| Route | VEBIT T50 ROTOS Z669 ULMES DCT VADAR DCT NINTU/N0493F370 DCT MEBAK/N0493F360 DCT TIS/N0492F380 DCT VALKU/N0493F370 DCT PECNO DCT GALOF/N0487F380 DCT RIVAK/M085F380 DCT SIVIR DCT 46N015W 46N020W 41N030W/M085F400 36N040W 31N050W DCT FIVZE DCT OPAUL/N0486F400 DCT KATOK KATOK2B |
| Aircraft | A359/H-SDE2E3GHIJ3J4J5LM1ORWXY/LB1D1 |
Departure
| Time | 2026-05-06 12:54 |
|---|---|
| Airport | Zürich Airport (LSZH) |
Arrival
| Time | N/A |
|---|---|
| Airport | Punta Cana International Airport (MDPC) |
| Time | Latitude | Longitude | Altitude | Speed | Heading |
|---|---|---|---|---|---|
| 2026-05-06 11:48 | 47.46032 | 8.55832 | 1411 ft | 0 kts | 6° |
| 2026-05-06 12:43 | 47.46021 | 8.55831 | 1410 ft | 2 kts | 7° |
| 2026-05-06 12:43 | 47.46005 | 8.55827 | 1411 ft | 2 kts | 9° |
| 2026-05-06 12:43 | 47.45989 | 8.55822 | 1415 ft | 2 kts | 13° |
| 2026-05-06 12:44 | 47.45973 | 8.55816 | 1416 ft | 2 kts | 20° |
| 2026-05-06 12:44 | 47.45958 | 8.55806 | 1416 ft | 2 kts | 35° |
| 2026-05-06 12:44 | 47.45947 | 8.55789 | 1417 ft | 2 kts | 72° |
| 2026-05-06 12:44 | 47.45946 | 8.55770 | 1415 ft | 1 kts | 97° |
| 2026-05-06 12:45 | 47.45946 | 8.55768 | 1415 ft | 0 kts | 97° |
| 2026-05-06 12:47 | 47.45943 | 8.55820 | 1415 ft | 17 kts | 95° |
| 2026-05-06 12:48 | 47.45928 | 8.56053 | 1418 ft | 25 kts | 95° |
| 2026-05-06 12:48 | 47.45917 | 8.56233 | 1421 ft | 3 kts | 96° |
| 2026-05-06 12:48 | 47.45916 | 8.56248 | 1420 ft | 3 kts | 96° |
| 2026-05-06 12:48 | 47.45897 | 8.56396 | 1425 ft | 20 kts | 116° |
| 2026-05-06 12:49 | 47.45806 | 8.56581 | 1425 ft | 25 kts | 110° |
| 2026-05-06 12:49 | 47.45784 | 8.56794 | 1427 ft | 19 kts | 96° |
| 2026-05-06 12:49 | 47.45776 | 8.56909 | 1429 ft | 0 kts | 97° |
| 2026-05-06 12:50 | 47.45776 | 8.56912 | 1429 ft | 5 kts | 97° |
| 2026-05-06 12:50 | 47.45725 | 8.57024 | 1431 ft | 14 kts | 167° |
| 2026-05-06 12:51 | 47.45691 | 8.57010 | 1431 ft | 0 kts | 217° |
| 2026-05-06 12:51 | 47.45675 | 8.56983 | 1430 ft | 13 kts | 238° |
| 2026-05-06 12:51 | 47.45671 | 8.56903 | 1429 ft | 3 kts | 269° |
| 2026-05-06 12:51 | 47.45672 | 8.56894 | 1429 ft | 0 kts | 275° |
| 2026-05-06 12:53 | 47.45681 | 8.56732 | 1425 ft | 48 kts | 275° |
| 2026-05-06 12:53 | 47.45738 | 8.55920 | 1417 ft | 109 kts | 276° |
| 2026-05-06 12:53 | 47.45832 | 8.54539 | 1505 ft | 148 kts | 276° |
| 2026-05-06 12:54 | 47.45945 | 8.53022 | 2048 ft | 154 kts | 275° |
| 2026-05-06 12:54 | 47.46056 | 8.51482 | 2788 ft | 150 kts | 274° |
| 2026-05-06 12:54 | 47.46147 | 8.49925 | 3307 ft | 157 kts | 270° |
| 2026-05-06 12:54 | 47.45859 | 8.48332 | 3760 ft | 170 kts | 238° |
| 2026-05-06 12:55 | 47.45064 | 8.46950 | 4238 ft | 183 kts | 227° |
| 2026-05-06 12:55 | 47.44186 | 8.45489 | 4782 ft | 194 kts | 234° |
| 2026-05-06 12:55 | 47.43372 | 8.43870 | 5318 ft | 201 kts | 236° |
| 2026-05-06 12:55 | 47.42561 | 8.42182 | 5773 ft | 210 kts | 236° |
| 2026-05-06 12:56 | 47.41675 | 8.40322 | 6261 ft | 223 kts | 236° |
| 2026-05-06 12:56 | 47.40764 | 8.38403 | 6732 ft | 234 kts | 236° |
| 2026-05-06 12:56 | 47.39814 | 8.36404 | 7199 ft | 245 kts | 236° |
| 2026-05-06 12:56 | 47.38862 | 8.34280 | 7783 ft | 252 kts | 240° |
| 2026-05-06 12:57 | 47.38018 | 8.31996 | 8542 ft | 255 kts | 243° |
| 2026-05-06 12:57 | 47.37201 | 8.29678 | 9325 ft | 257 kts | 243° |
| 2026-05-06 12:57 | 47.36373 | 8.27332 | 10072 ft | 260 kts | 243° |
| 2026-05-06 12:57 | 47.35516 | 8.24910 | 10500 ft | 275 kts | 243° |
| 2026-05-06 12:58 | 47.34608 | 8.22340 | 10870 ft | 289 kts | 243° |
| 2026-05-06 12:58 | 47.33652 | 8.19652 | 11280 ft | 303 kts | 242° |
| 2026-05-06 12:58 | 47.32651 | 8.16843 | 11691 ft | 316 kts | 242° |
| 2026-05-06 12:58 | 47.31608 | 8.13919 | 12098 ft | 329 kts | 242° |
| 2026-05-06 12:59 | 47.30524 | 8.10866 | 12442 ft | 343 kts | 242° |
| 2026-05-06 12:59 | 47.29397 | 8.07701 | 12847 ft | 355 kts | 242° |
| 2026-05-06 12:59 | 47.28231 | 8.04432 | 13315 ft | 364 kts | 242° |
| 2026-05-06 12:59 | 47.27055 | 8.01092 | 13913 ft | 369 kts | 243° |
| 2026-05-06 13:00 | 47.25969 | 7.97649 | 14508 ft | 373 kts | 245° |
| 2026-05-06 13:00 | 47.24950 | 7.94113 | 15072 ft | 378 kts | 246° |
| 2026-05-06 13:00 | 47.23957 | 7.90510 | 15650 ft | 382 kts | 246° |
| 2026-05-06 13:00 | 47.22966 | 7.86868 | 16219 ft | 386 kts | 246° |
| 2026-05-06 13:01 | 47.21956 | 7.83169 | 16783 ft | 390 kts | 246° |
| 2026-05-06 13:01 | 47.20931 | 7.79456 | 17342 ft | 394 kts | 246° |
| 2026-05-06 13:01 | 47.19893 | 7.75755 | 17873 ft | 398 kts | 245° |
| 2026-05-06 13:01 | 47.18577 | 7.72159 | 18366 ft | 401 kts | 234° |
| 2026-05-06 13:02 | 47.16985 | 7.68788 | 18920 ft | 403 kts | 232° |
| 2026-05-06 13:02 | 47.15266 | 7.65442 | 19461 ft | 406 kts | 230° |
| 2026-05-06 13:02 | 47.13618 | 7.62372 | 19963 ft | 408 kts | 229° |
| 2026-05-06 13:02 | 47.11767 | 7.58995 | 20521 ft | 412 kts | 229° |
| 2026-05-06 13:03 | 47.09980 | 7.55748 | 21037 ft | 416 kts | 228° |
| 2026-05-06 13:03 | 47.08157 | 7.52429 | 21549 ft | 420 kts | 229° |
| 2026-05-06 13:03 | 47.06321 | 7.49073 | 22062 ft | 424 kts | 228° |
| 2026-05-06 13:03 | 47.04470 | 7.45678 | 22591 ft | 427 kts | 228° |
| 2026-05-06 13:04 | 47.02603 | 7.42248 | 23067 ft | 432 kts | 228° |
| 2026-05-06 13:04 | 47.00721 | 7.38786 | 23538 ft | 436 kts | 228° |
| 2026-05-06 13:04 | 46.98821 | 7.35308 | 24000 ft | 438 kts | 228° |
| 2026-05-06 13:04 | 46.96912 | 7.31827 | 24553 ft | 439 kts | 228° |
| 2026-05-06 13:05 | 46.94997 | 7.28342 | 25098 ft | 439 kts | 228° |
| 2026-05-06 13:05 | 46.93087 | 7.24855 | 25652 ft | 439 kts | 229° |
| 2026-05-06 13:05 | 46.91178 | 7.21373 | 26192 ft | 439 kts | 229° |
| 2026-05-06 13:05 | 46.89288 | 7.17932 | 26747 ft | 440 kts | 229° |
| 2026-05-06 13:06 | 46.87339 | 7.14390 | 27278 ft | 441 kts | 229° |
| 2026-05-06 13:06 | 46.85414 | 7.10894 | 27771 ft | 442 kts | 229° |
| 2026-05-06 13:06 | 46.83482 | 7.07388 | 28263 ft | 444 kts | 229° |
| 2026-05-06 13:06 | 46.81568 | 7.03919 | 28697 ft | 445 kts | 229° |
| 2026-05-06 13:07 | 46.79619 | 7.00390 | 29118 ft | 447 kts | 229° |
| 2026-05-06 13:07 | 46.77661 | 6.96850 | 29526 ft | 449 kts | 230° |
| 2026-05-06 13:07 | 46.75675 | 6.93266 | 29949 ft | 450 kts | 230° |
| 2026-05-06 13:07 | 46.73723 | 6.89746 | 30265 ft | 451 kts | 230° |
| 2026-05-06 13:08 | 46.71748 | 6.86189 | 30647 ft | 451 kts | 230° |
| 2026-05-06 13:08 | 46.69777 | 6.82644 | 31029 ft | 450 kts | 230° |
| 2026-05-06 13:08 | 46.67805 | 6.79102 | 31394 ft | 450 kts | 229° |
| 2026-05-06 13:08 | 46.65898 | 6.75493 | 31779 ft | 450 kts | 233° |
| 2026-05-06 13:09 | 46.64195 | 6.71676 | 32155 ft | 449 kts | 236° |
| 2026-05-06 13:09 | 46.62543 | 6.67811 | 32463 ft | 450 kts | 236° |
| 2026-05-06 13:09 | 46.60917 | 6.63929 | 32823 ft | 449 kts | 237° |
| 2026-05-06 13:09 | 46.59303 | 6.60044 | 33163 ft | 449 kts | 237° |
| 2026-05-06 13:10 | 46.57689 | 6.56154 | 33481 ft | 449 kts | 237° |
| 2026-05-06 13:10 | 46.56074 | 6.52273 | 33819 ft | 449 kts | 237° |
| 2026-05-06 13:10 | 46.54452 | 6.48388 | 34124 ft | 448 kts | 237° |
| 2026-05-06 13:10 | 46.52852 | 6.44569 | 34357 ft | 450 kts | 237° |
| 2026-05-06 13:11 | 46.51210 | 6.40664 | 34570 ft | 450 kts | 237° |
| 2026-05-06 13:11 | 46.49598 | 6.36831 | 34702 ft | 437 kts | 237° |
| 2026-05-06 13:11 | 46.48044 | 6.33139 | 34784 ft | 421 kts | 237° |
| 2026-05-06 13:11 | 46.46524 | 6.29535 | 34384 ft | 418 kts | 236° |
| 2026-05-06 13:12 | 46.45012 | 6.25963 | 34034 ft | 414 kts | 236° |
| 2026-05-06 13:12 | 46.42000 | 6.18864 | 33927 ft | 419 kts | 236° |
| 2026-05-06 13:13 | 46.38888 | 6.11554 | 33930 ft | 433 kts | 236° |
| 2026-05-06 13:13 | 46.35671 | 6.04005 | 33934 ft | 447 kts | 237° |
| 2026-05-06 13:14 | 46.32372 | 5.96279 | 33933 ft | 460 kts | 237° |
| 2026-05-06 13:14 | 46.28993 | 5.88383 | 33935 ft | 461 kts | 237° |
| 2026-05-06 13:15 | 46.25615 | 5.80515 | 33934 ft | 461 kts | 237° |
| 2026-05-06 13:15 | 46.22223 | 5.72639 | 33923 ft | 461 kts | 237° |
| 2026-05-06 13:16 | 46.18819 | 5.64759 | 33919 ft | 462 kts | 237° |
| 2026-05-06 13:16 | 46.15986 | 5.58216 | 33918 ft | 462 kts | 237° |
| 2026-05-06 13:17 | 46.11939 | 5.49163 | 33921 ft | 462 kts | 234° |
| 2026-05-06 13:17 | 46.08241 | 5.41589 | 33922 ft | 462 kts | 233° |
| 2026-05-06 13:18 | 46.05130 | 5.35253 | 33919 ft | 462 kts | 234° |
| 2026-05-06 13:18 | 46.01443 | 5.27668 | 33925 ft | 462 kts | 234° |
| 2026-05-06 13:19 | 45.97769 | 5.20071 | 33931 ft | 462 kts | 234° |
| 2026-05-06 13:19 | 45.94100 | 5.12493 | 33932 ft | 462 kts | 234° |
| 2026-05-06 13:20 | 45.90438 | 5.04953 | 33933 ft | 462 kts | 234° |
| 2026-05-06 13:20 | 45.86759 | 4.97403 | 33936 ft | 461 kts | 234° |
| 2026-05-06 13:21 | 45.83073 | 4.89859 | 33938 ft | 461 kts | 234° |
| 2026-05-06 13:21 | 45.79389 | 4.82341 | 33939 ft | 460 kts | 234° |
| 2026-05-06 13:22 | 45.75744 | 4.74809 | 33938 ft | 460 kts | 237° |
| 2026-05-06 13:22 | 45.73121 | 4.66494 | 33932 ft | 463 kts | 252° |
| 2026-05-06 13:23 | 45.72361 | 4.57359 | 33927 ft | 469 kts | 270° |
| 2026-05-06 13:23 | 45.73436 | 4.48087 | 33915 ft | 474 kts | 279° |
| 2026-05-06 13:24 | 45.74965 | 4.38868 | 33921 ft | 476 kts | 280° |
| 2026-05-06 13:24 | 45.76512 | 4.29638 | 33911 ft | 477 kts | 280° |
| 2026-05-06 13:25 | 45.78016 | 4.20386 | 33913 ft | 477 kts | 280° |
| 2026-05-06 13:25 | 45.79493 | 4.11113 | 33906 ft | 478 kts | 279° |
| 2026-05-06 13:26 | 45.80963 | 4.01808 | 33908 ft | 479 kts | 280° |
| 2026-05-06 13:26 | 45.82421 | 3.92537 | 33903 ft | 480 kts | 280° |
| 2026-05-06 13:27 | 45.83886 | 3.83176 | 33894 ft | 481 kts | 280° |
| 2026-05-06 13:27 | 45.85345 | 3.73800 | 33903 ft | 482 kts | 280° |
| 2026-05-06 13:28 | 45.86796 | 3.64426 | 33890 ft | 482 kts | 280° |
| 2026-05-06 13:28 | 45.88246 | 3.55002 | 33899 ft | 483 kts | 280° |
| 2026-05-06 13:29 | 45.89728 | 3.45652 | 33885 ft | 484 kts | 281° |
| 2026-05-06 13:29 | 45.91252 | 3.36241 | 33884 ft | 484 kts | 281° |
| 2026-05-06 13:30 | 45.92766 | 3.26815 | 33882 ft | 484 kts | 281° |
| 2026-05-06 13:30 | 45.94264 | 3.17384 | 33885 ft | 484 kts | 281° |
| 2026-05-06 13:31 | 45.95751 | 3.07943 | 33888 ft | 485 kts | 281° |
| 2026-05-06 13:31 | 45.97231 | 2.98499 | 33888 ft | 485 kts | 281° |
| 2026-05-06 13:32 | 45.98704 | 2.89041 | 33892 ft | 484 kts | 281° |
| 2026-05-06 13:32 | 45.99656 | 2.79477 | 33887 ft | 482 kts | 269° |
| 2026-05-06 13:33 | 45.99535 | 2.69906 | 33888 ft | 482 kts | 267° |
| 2026-05-06 13:33 | 45.99232 | 2.60274 | 33889 ft | 482 kts | 266° |
| 2026-05-06 13:34 | 45.98907 | 2.50646 | 33890 ft | 482 kts | 266° |
| 2026-05-06 13:34 | 45.98593 | 2.41010 | 33897 ft | 482 kts | 266° |
| 2026-05-06 13:35 | 45.98281 | 2.31396 | 33895 ft | 482 kts | 266° |
| 2026-05-06 13:35 | 45.97963 | 2.21774 | 33898 ft | 481 kts | 266° |
| 2026-05-06 13:36 | 45.97638 | 2.12161 | 33897 ft | 481 kts | 266° |
| 2026-05-06 13:36 | 45.97303 | 2.02551 | 33901 ft | 481 kts | 266° |
| 2026-05-06 13:37 | 45.96961 | 1.92948 | 33904 ft | 481 kts | 266° |
| 2026-05-06 13:37 | 45.96626 | 1.83341 | 33906 ft | 481 kts | 268° |
| 2026-05-06 13:38 | 45.96649 | 1.73761 | 33906 ft | 481 kts | 271° |
| 2026-05-06 13:38 | 45.96806 | 1.64143 | 33905 ft | 482 kts | 271° |
| 2026-05-06 13:39 | 45.96903 | 1.54508 | 33911 ft | 482 kts | 270° |
| 2026-05-06 13:39 | 45.96947 | 1.44845 | 33908 ft | 482 kts | 270° |
| 2026-05-06 13:40 | 45.96971 | 1.35201 | 33913 ft | 483 kts | 270° |
| 2026-05-06 13:40 | 45.96987 | 1.25598 | 33909 ft | 483 kts | 270° |
| 2026-05-06 13:41 | 45.96998 | 1.15935 | 33909 ft | 484 kts | 270° |
| 2026-05-06 13:41 | 45.97002 | 1.06263 | 33914 ft | 484 kts | 270° |
| 2026-05-06 13:42 | 45.96997 | 0.96569 | 33907 ft | 484 kts | 270° |
| 2026-05-06 13:42 | 45.96984 | 0.86883 | 33907 ft | 484 kts | 270° |
| 2026-05-06 13:43 | 45.96963 | 0.77263 | 33908 ft | 484 kts | 270° |
| 2026-05-06 13:43 | 45.96934 | 0.67574 | 33907 ft | 485 kts | 270° |
| 2026-05-06 13:44 | 45.96896 | 0.57872 | 33905 ft | 484 kts | 270° |
| 2026-05-06 13:44 | 45.96850 | 0.48193 | 33920 ft | 484 kts | 270° |
| 2026-05-06 13:45 | 45.96796 | 0.38501 | 33913 ft | 484 kts | 270° |
| 2026-05-06 13:45 | 45.96700 | 0.23990 | 33903 ft | 484 kts | 270° |
| 2026-05-06 13:46 | 45.96625 | 0.14313 | 33913 ft | 483 kts | 270° |
| 2026-05-06 13:46 | 45.96543 | 0.04713 | 33900 ft | 483 kts | 270° |
| 2026-05-06 13:47 | 45.96454 | -0.04938 | 33908 ft | 483 kts | 270° |
| 2026-05-06 13:47 | 45.96354 | -0.14605 | 33912 ft | 483 kts | 270° |
| 2026-05-06 13:48 | 45.96248 | -0.24246 | 33901 ft | 482 kts | 270° |
| 2026-05-06 13:48 | 45.96133 | -0.33885 | 33918 ft | 483 kts | 270° |
| 2026-05-06 13:49 | 45.96011 | -0.43470 | 33920 ft | 482 kts | 270° |
| 2026-05-06 13:49 | 45.95882 | -0.53109 | 33923 ft | 482 kts | 270° |
| 2026-05-06 13:50 | 45.95743 | -0.62757 | 33915 ft | 482 kts | 270° |
| 2026-05-06 13:50 | 45.95596 | -0.72384 | 33931 ft | 482 kts | 270° |
| 2026-05-06 13:51 | 45.95441 | -0.82014 | 33932 ft | 482 kts | 270° |
| 2026-05-06 13:51 | 45.95278 | -0.91642 | 33941 ft | 482 kts | 270° |
| 2026-05-06 13:52 | 45.95108 | -1.01272 | 33942 ft | 481 kts | 270° |
| 2026-05-06 13:52 | 45.94928 | -1.10898 | 33950 ft | 482 kts | 270° |
| 2026-05-06 13:53 | 45.94741 | -1.20510 | 33951 ft | 482 kts | 270° |
| 2026-05-06 13:53 | 45.94547 | -1.30092 | 33948 ft | 482 kts | 270° |
| 2026-05-06 13:54 | 45.94344 | -1.39724 | 33953 ft | 482 kts | 270° |
| 2026-05-06 13:54 | 45.94133 | -1.49349 | 33949 ft | 482 kts | 270° |
| 2026-05-06 13:55 | 45.93913 | -1.58985 | 33954 ft | 482 kts | 270° |
| 2026-05-06 13:55 | 45.93861 | -1.68608 | 33957 ft | 481 kts | 274° |
| 2026-05-06 13:56 | 45.94163 | -1.78144 | 33959 ft | 481 kts | 275° |
| 2026-05-06 13:56 | 45.94517 | -1.87736 | 33963 ft | 481 kts | 275° |
| 2026-05-06 13:57 | 45.94866 | -1.97342 | 33967 ft | 481 kts | 274° |
| 2026-05-06 13:57 | 45.95201 | -2.06934 | 33974 ft | 481 kts | 274° |
| 2026-05-06 13:58 | 45.95524 | -2.16537 | 33975 ft | 481 kts | 274° |
| 2026-05-06 13:58 | 45.95839 | -2.26135 | 33978 ft | 480 kts | 274° |
| 2026-05-06 13:59 | 45.96145 | -2.35719 | 33981 ft | 480 kts | 274° |
| 2026-05-06 13:59 | 45.96441 | -2.45251 | 33982 ft | 480 kts | 274° |
| 2026-05-06 14:00 | 45.96731 | -2.54848 | 33978 ft | 479 kts | 274° |
| 2026-05-06 14:00 | 45.97012 | -2.64422 | 33990 ft | 479 kts | 273° |
| 2026-05-06 14:01 | 45.97285 | -2.73981 | 33986 ft | 479 kts | 273° |
| 2026-05-06 14:01 | 45.97548 | -2.83476 | 33989 ft | 478 kts | 273° |
| 2026-05-06 14:02 | 45.97804 | -2.93033 | 33990 ft | 478 kts | 273° |
| 2026-05-06 14:02 | 45.98053 | -3.02601 | 33993 ft | 477 kts | 273° |
| 2026-05-06 14:03 | 45.98295 | -3.12145 | 33996 ft | 477 kts | 273° |
| 2026-05-06 14:03 | 45.98526 | -3.21679 | 33996 ft | 477 kts | 273° |
| 2026-05-06 14:04 | 45.98749 | -3.31155 | 33994 ft | 477 kts | 273° |
| 2026-05-06 14:04 | 45.98966 | -3.40687 | 33989 ft | 477 kts | 273° |
| 2026-05-06 14:05 | 45.99175 | -3.50232 | 34005 ft | 477 kts | 273° |
| 2026-05-06 14:05 | 45.99376 | -3.59781 | 34000 ft | 477 kts | 273° |
| 2026-05-06 14:06 | 45.99537 | -3.67714 | 34003 ft | 477 kts | 273° |
| 2026-05-06 14:06 | 45.99724 | -3.77275 | 34002 ft | 478 kts | 273° |
| 2026-05-06 14:07 | 45.99903 | -3.86837 | 34009 ft | 479 kts | 273° |
| 2026-05-06 14:07 | 46.00073 | -3.96406 | 34006 ft | 479 kts | 273° |
| 2026-05-06 14:08 | 46.00236 | -4.05985 | 34009 ft | 479 kts | 273° |
| 2026-05-06 14:08 | 46.00391 | -4.15558 | 34011 ft | 479 kts | 273° |
| 2026-05-06 14:09 | 46.00538 | -4.25149 | 34015 ft | 479 kts | 273° |
| 2026-05-06 14:09 | 46.00678 | -4.34741 | 34015 ft | 479 kts | 273° |
| 2026-05-06 14:10 | 46.00808 | -4.44277 | 34018 ft | 479 kts | 272° |
| 2026-05-06 14:10 | 46.00932 | -4.53866 | 34017 ft | 479 kts | 272° |
| 2026-05-06 14:11 | 46.01047 | -4.63450 | 34016 ft | 478 kts | 272° |
| 2026-05-06 14:11 | 46.01154 | -4.73009 | 34022 ft | 478 kts | 272° |
| 2026-05-06 14:12 | 46.01252 | -4.82555 | 34028 ft | 477 kts | 272° |
| 2026-05-06 14:12 | 46.01343 | -4.92091 | 34022 ft | 476 kts | 271° |
| 2026-05-06 14:13 | 46.01426 | -5.01633 | 34027 ft | 476 kts | 271° |
| 2026-05-06 14:13 | 46.01500 | -5.11108 | 34025 ft | 476 kts | 271° |
| 2026-05-06 14:14 | 46.01567 | -5.20644 | 34029 ft | 476 kts | 271° |
| 2026-05-06 14:14 | 46.01625 | -5.30186 | 34032 ft | 476 kts | 271° |
| 2026-05-06 14:15 | 46.01676 | -5.39709 | 34028 ft | 476 kts | 271° |
| 2026-05-06 14:15 | 46.01719 | -5.49256 | 34036 ft | 476 kts | 271° |
| 2026-05-06 14:16 | 46.01754 | -5.58729 | 34031 ft | 476 kts | 271° |
| 2026-05-06 14:16 | 46.01782 | -5.68280 | 34035 ft | 476 kts | 270° |
| 2026-05-06 14:17 | 46.01801 | -5.77824 | 34031 ft | 476 kts | 270° |
| 2026-05-06 14:17 | 46.01812 | -5.87296 | 34032 ft | 476 kts | 270° |
| 2026-05-06 14:18 | 46.01816 | -5.96826 | 34034 ft | 477 kts | 270° |
| 2026-05-06 14:18 | 46.01811 | -6.06367 | 34042 ft | 477 kts | 270° |
| 2026-05-06 14:19 | 46.01799 | -6.15907 | 34044 ft | 477 kts | 270° |
| 2026-05-06 14:19 | 46.01779 | -6.25451 | 34038 ft | 477 kts | 270° |
| 2026-05-06 14:20 | 46.01750 | -6.34999 | 34039 ft | 477 kts | 270° |
| 2026-05-06 14:20 | 46.01714 | -6.44532 | 34038 ft | 477 kts | 270° |
| 2026-05-06 14:21 | 46.01670 | -6.54090 | 34042 ft | 477 kts | 270° |
| 2026-05-06 14:21 | 46.01618 | -6.63582 | 34043 ft | 477 kts | 270° |
| 2026-05-06 14:22 | 46.01558 | -6.73155 | 34034 ft | 477 kts | 269° |
| 2026-05-06 14:22 | 46.01490 | -6.82700 | 34040 ft | 478 kts | 269° |
| 2026-05-06 14:23 | 46.01414 | -6.92273 | 34040 ft | 478 kts | 269° |
| 2026-05-06 14:23 | 46.01330 | -7.01830 | 34047 ft | 478 kts | 269° |
| 2026-05-06 14:24 | 46.01238 | -7.11397 | 34045 ft | 478 kts | 269° |
| 2026-05-06 14:24 | 46.01138 | -7.20909 | 34043 ft | 478 kts | 269° |
| 2026-05-06 14:25 | 46.01030 | -7.30469 | 34043 ft | 478 kts | 269° |
| 2026-05-06 14:25 | 46.00914 | -7.40026 | 34045 ft | 478 kts | 269° |
| 2026-05-06 14:26 | 46.00790 | -7.49603 | 34046 ft | 478 kts | 269° |
| 2026-05-06 14:26 | 46.00658 | -7.59159 | 34046 ft | 478 kts | 269° |
| 2026-05-06 14:27 | 46.00519 | -7.68716 | 34051 ft | 478 kts | 269° |
| 2026-05-06 14:27 | 46.00371 | -7.78276 | 34050 ft | 477 kts | 269° |
| 2026-05-06 14:28 | 46.00215 | -7.87821 | 34053 ft | 477 kts | 268° |
| 2026-05-06 14:28 | 46.00053 | -7.97302 | 34047 ft | 477 kts | 268° |
| 2026-05-06 14:29 | 45.99942 | -8.06861 | 34057 ft | 477 kts | 270° |
| 2026-05-06 14:29 | 45.99993 | -8.16410 | 34058 ft | 478 kts | 270° |
| 2026-05-06 14:30 | 46.00049 | -8.25970 | 34050 ft | 477 kts | 270° |
| 2026-05-06 14:30 | 46.00070 | -8.35528 | 34054 ft | 477 kts | 270° |
| 2026-05-06 14:31 | 46.00068 | -8.45084 | 34052 ft | 477 kts | 270° |
| 2026-05-06 14:31 | 46.00056 | -8.54625 | 34061 ft | 477 kts | 269° |
| 2026-05-06 14:32 | 46.00036 | -8.64172 | 34055 ft | 477 kts | 269° |
| 2026-05-06 14:32 | 46.00010 | -8.73665 | 34054 ft | 477 kts | 269° |
| 2026-05-06 14:33 | 46.00104 | -8.83228 | 34055 ft | 477 kts | 271° |
| 2026-05-06 14:33 | 46.00409 | -8.92762 | 34062 ft | 477 kts | 272° |
| 2026-05-06 14:34 | 46.00706 | -9.02305 | 34065 ft | 477 kts | 271° |
| 2026-05-06 14:34 | 46.00957 | -9.11858 | 34056 ft | 477 kts | 271° |
| 2026-05-06 14:35 | 46.01181 | -9.21331 | 34061 ft | 477 kts | 271° |
| 2026-05-06 14:35 | 46.01396 | -9.30862 | 34069 ft | 476 kts | 271° |
| 2026-05-06 14:36 | 46.01604 | -9.40387 | 34063 ft | 476 kts | 271° |
| 2026-05-06 14:36 | 46.01805 | -9.49917 | 34064 ft | 476 kts | 271° |
| 2026-05-06 14:37 | 46.01999 | -9.59441 | 34145 ft | 477 kts | 271° |
| 2026-05-06 14:37 | 46.02092 | -9.64194 | 34524 ft | 473 kts | 271° |
| 2026-05-06 14:37 | 46.02184 | -9.68923 | 34899 ft | 471 kts | 271° |
| 2026-05-06 14:38 | 46.02272 | -9.73631 | 35151 ft | 471 kts | 271° |
| 2026-05-06 14:38 | 46.02359 | -9.78349 | 35387 ft | 471 kts | 271° |
| 2026-05-06 14:38 | 46.02443 | -9.82996 | 35615 ft | 471 kts | 271° |
| 2026-05-06 14:38 | 46.02526 | -9.87718 | 35850 ft | 472 kts | 271° |
| 2026-05-06 14:39 | 46.02607 | -9.92438 | 36071 ft | 472 kts | 271° |
| 2026-05-06 14:39 | 46.02687 | -9.97160 | 36303 ft | 472 kts | 271° |
| 2026-05-06 14:39 | 46.02764 | -10.01881 | 36518 ft | 473 kts | 271° |
| 2026-05-06 14:39 | 46.02840 | -10.06616 | 36733 ft | 473 kts | 271° |
| 2026-05-06 14:40 | 46.02914 | -10.11353 | 36939 ft | 473 kts | 271° |
| 2026-05-06 14:40 | 46.02985 | -10.16089 | 37146 ft | 473 kts | 271° |
| 2026-05-06 14:40 | 46.03055 | -10.20834 | 37368 ft | 474 kts | 271° |
| 2026-05-06 14:40 | 46.03123 | -10.25578 | 37555 ft | 474 kts | 271° |
| 2026-05-06 14:41 | 46.03189 | -10.30327 | 37751 ft | 474 kts | 271° |
| 2026-05-06 14:41 | 46.03253 | -10.35065 | 37936 ft | 474 kts | 271° |
| 2026-05-06 14:41 | 46.03316 | -10.39811 | 38123 ft | 474 kts | 271° |
| 2026-05-06 14:41 | 46.03376 | -10.44571 | 38303 ft | 475 kts | 271° |
| 2026-05-06 14:42 | 46.03433 | -10.49256 | 38474 ft | 475 kts | 271° |
| 2026-05-06 14:42 | 46.03490 | -10.54017 | 38655 ft | 475 kts | 271° |
| 2026-05-06 14:42 | 46.03544 | -10.58765 | 38806 ft | 475 kts | 271° |
| 2026-05-06 14:42 | 46.03596 | -10.63525 | 38930 ft | 475 kts | 271° |
| 2026-05-06 14:43 | 46.03646 | -10.68269 | 39051 ft | 475 kts | 271° |
| 2026-05-06 14:43 | 46.03695 | -10.73033 | 39169 ft | 475 kts | 271° |
| 2026-05-06 14:43 | 46.03741 | -10.77787 | 39288 ft | 475 kts | 271° |
| 2026-05-06 14:43 | 46.03786 | -10.82539 | 39400 ft | 475 kts | 271° |
| 2026-05-06 14:44 | 46.03828 | -10.87292 | 39526 ft | 475 kts | 271° |
| 2026-05-06 14:44 | 46.03869 | -10.92043 | 39637 ft | 475 kts | 271° |
| 2026-05-06 14:44 | 46.03907 | -10.96801 | 39744 ft | 475 kts | 271° |
| 2026-05-06 14:45 | 46.03978 | -11.06309 | 39945 ft | 475 kts | 271° |
| 2026-05-06 14:45 | 46.04042 | -11.15824 | 40050 ft | 477 kts | 271° |
| 2026-05-06 14:46 | 46.04098 | -11.25351 | 40076 ft | 479 kts | 271° |
| 2026-05-06 14:46 | 46.04145 | -11.34934 | 40082 ft | 478 kts | 271° |
| 2026-05-06 14:47 | 46.04185 | -11.44515 | 40079 ft | 478 kts | 271° |
| 2026-05-06 14:47 | 46.04217 | -11.54084 | 40081 ft | 478 kts | 271° |
| 2026-05-06 14:48 | 46.04241 | -11.63661 | 40083 ft | 478 kts | 271° |
| 2026-05-06 14:48 | 46.04257 | -11.73230 | 40083 ft | 478 kts | 271° |
| 2026-05-06 14:49 | 46.04265 | -11.82806 | 40085 ft | 478 kts | 271° |
| 2026-05-06 14:49 | 46.04265 | -11.92328 | 40089 ft | 478 kts | 271° |
| 2026-05-06 14:50 | 46.04257 | -12.01900 | 40088 ft | 478 kts | 271° |
| 2026-05-06 14:50 | 46.04241 | -12.11477 | 40092 ft | 478 kts | 271° |
| 2026-05-06 14:51 | 46.04217 | -12.21048 | 40088 ft | 478 kts | 271° |
| 2026-05-06 14:51 | 46.04198 | -12.26757 | 40089 ft | 478 kts | 271° |
| 2026-05-06 14:52 | 46.04188 | -12.29623 | 40092 ft | 478 kts | 271° |
| 2026-05-06 14:52 | 46.04177 | -12.32488 | 40092 ft | 478 kts | 271° |
| 2026-05-06 14:53 | 46.04156 | -12.37707 | 40093 ft | 478 kts | 270° |
| 2026-05-06 14:53 | 46.04135 | -12.40866 | 40095 ft | 478 kts | 271° |
| 2026-05-06 14:54 | 46.04118 | -12.44027 | 40093 ft | 478 kts | 271° |
| 2026-05-06 14:54 | 46.04105 | -12.46838 | 40096 ft | 478 kts | 271° |
| 2026-05-06 14:55 | 46.04096 | -12.51778 | 40094 ft | 478 kts | 271° |
| 2026-05-06 14:55 | 46.04053 | -12.60552 | 40097 ft | 478 kts | 270° |
| 2026-05-06 14:56 | 46.03973 | -12.70135 | 40097 ft | 478 kts | 270° |
| 2026-05-06 14:56 | 46.03894 | -12.79699 | 40096 ft | 478 kts | 270° |
| 2026-05-06 14:57 | 46.03813 | -12.89270 | 40099 ft | 478 kts | 270° |
| 2026-05-06 14:57 | 46.03724 | -12.98841 | 40100 ft | 478 kts | 270° |
| 2026-05-06 14:58 | 46.03628 | -13.08411 | 40099 ft | 478 kts | 270° |
| 2026-05-06 14:58 | 46.03524 | -13.17922 | 40099 ft | 478 kts | 270° |